Houn Maru — JG5489 — position and weather

sailwx.info

Track history (hours):
 
Tides and Currents Weather Stations Pressure Air Temp Water Temp Dewpoint Dewpoint Depression Visibility Wind Speed Wind Dir Waves Ship Positions

Houn Maru

Last reported at 2016-May-26 14:33 UTC. Time now 2016-May-26 16:24 UTC.
Position N 34°26' E 135°10'.

Length 91 m; draft 6 m.

Type: Tanker. MMSI: 431101172.

Date/timePositionNaut miles runAvg speedWind from/ knotsBaromVisibWave heightAir tempDewpointWater temp
2016-May-26 14:33N 34°26' E 135°10'1110.6
2016-May-26 13:33N 34°36' E 135°03'5 0.1
2016-May-25 01:07N 34°37' E 134°57'813.4
2016-May-25 00:33N 34°36' E 135°06'1312.6
2016-May-24 23:33N 34°36' E 135°21'5 0.1
2016-May-23 06:07N 34°35' E 135°27'4 6.9
2016-May-23 05:33N 34°36' E 135°22'1212.2
2016-May-23 04:33N 34°27' E 135°12'3 0.6
2016-May-23 00:05N 34°25' E 135°14'2 4.2
2016-May-22 23:33N 34°23' E 135°13'0 0.0
2016-May-22 22:19N 34°23' E 135°13'0 0.1
2016-May-22 21:28N 34°23' E 135°13'0 0.0
2016-May-22 20:28N 34°23' E 135°13'0 0.0
2016-May-22 19:19N 34°23' E 135°13'0 0.1
2016-May-22 18:31N 34°23' E 135°13'0 0.0
2016-May-22 17:31N 34°23' E 135°13'8 8.7
2016-May-22 16:33N 34°30' E 135°07'1010.0
2016-May-22 15:31N 34°36' E 134°56'1 0.0
2016-May-21 06:20N 34°36' E 134°55'7 8.4
2016-May-21 05:32N 34°36' E 135°03'1010.1
2016-May-21 04:33N 34°28' E 135°09'5 2.5
2016-May-21 02:32N 34°25' E 135°14'0 0.0
2016-May-21 01:20N 34°25' E 135°14'0 0.0
2016-May-21 00:32N 34°25' E 135°14'2 2.3
2016-May-20 23:32N 34°23' E 135°13'0 0.0
2016-May-20 22:32N 34°23' E 135°13'0 0.1
2016-May-20 21:32N 34°23' E 135°13'0 0.0
2016-May-20 20:26N 34°23' E 135°13'0 0.0
2016-May-20 19:29N 34°23' E 135°13'0 0.0
2016-May-20 18:14N 34°23' E 135°13'0 0.1
2016-May-20 17:21N 34°23' E 135°13'810.1
2016-May-20 16:33N 34°30' E 135°07'1110.5
2016-May-20 15:33N 34°36' E 134°56'2 0.1
2016-May-19 06:25N 34°36' E 134°54'8 9.6
2016-May-19 05:33N 34°36' E 135°04'1110.9
2016-May-19 04:33N 34°26' E 135°11'3 2.8
2016-May-19 03:24N 34°25' E 135°14'0 0.0
2016-May-19 01:24N 34°25' E 135°14'0 0.0
2016-May-19 00:30N 34°25' E 135°14'2 2.3
2016-May-18 23:33N 34°23' E 135°13'0 0.1
2016-May-18 22:32N 34°23' E 135°13'0 0.0
2016-May-18 21:32N 34°23' E 135°13'0 0.0
2016-May-18 20:32N 34°23' E 135°13'1 0.9
2016-May-18 19:33N 34°24' E 135°12'1110.9
2016-May-18 18:33N 34°33' E 135°04'8 0.2
2016-May-16 23:33N 34°36' E 134°55'1010.5
2016-May-16 22:33N 34°32' E 135°07'1110.6
2016-May-16 21:33N 34°22' E 135°12'0 0.0
2016-May-16 20:30N 34°23' E 135°12'0 0.0
2016-May-16 19:33N 34°22' E 135°12'0 0.0
2016-May-16 18:24N 34°22' E 135°12'0 0.0
2016-May-16 16:06N 34°23' E 135°12'0 0.0
2016-May-16 15:24N 34°23' E 135°12'  
Track history (hours):
 
Tides and Currents Weather Stations Pressure Air Temp Water Temp Dewpoint Dewpoint Depression Visibility Wind Speed Wind Dir Waves Ship Positions

Houn Maru

Last reported at 2016-May-26 14:33 UTC. Time now 2016-May-26 16:24 UTC.
Position N 34°26' E 135°10'.

Length 91 m; draft 6 m.

Type: Tanker. MMSI: 431101172.

Date/timePositionNaut miles runAvg speedWind from/ knotsBaromVisibWave heightAir tempDewpointWater temp
2016-May-26 14:33N 34°26' E 135°10'1110.6
2016-May-26 13:33N 34°36' E 135°03'5 0.1
2016-May-25 01:07N 34°37' E 134°57'813.4
2016-May-25 00:33N 34°36' E 135°06'1312.6
2016-May-24 23:33N 34°36' E 135°21'5 0.1
2016-May-23 06:07N 34°35' E 135°27'4 6.9
2016-May-23 05:33N 34°36' E 135°22'1212.2
2016-May-23 04:33N 34°27' E 135°12'3 0.6
2016-May-23 00:05N 34°25' E 135°14'2 4.2
2016-May-22 23:33N 34°23' E 135°13'0 0.0
2016-May-22 22:19N 34°23' E 135°13'0 0.1
2016-May-22 21:28N 34°23' E 135°13'0 0.0
2016-May-22 20:28N 34°23' E 135°13'0 0.0
2016-May-22 19:19N 34°23' E 135°13'0 0.1
2016-May-22 18:31N 34°23' E 135°13'0 0.0
2016-May-22 17:31N 34°23' E 135°13'8 8.7
2016-May-22 16:33N 34°30' E 135°07'1010.0
2016-May-22 15:31N 34°36' E 134°56'1 0.0
2016-May-21 06:20N 34°36' E 134°55'7 8.4
2016-May-21 05:32N 34°36' E 135°03'1010.1
2016-May-21 04:33N 34°28' E 135°09'5 2.5
2016-May-21 02:32N 34°25' E 135°14'0 0.0
2016-May-21 01:20N 34°25' E 135°14'0 0.0
2016-May-21 00:32N 34°25' E 135°14'2 2.3
2016-May-20 23:32N 34°23' E 135°13'0 0.0
2016-May-20 22:32N 34°23' E 135°13'0 0.1
2016-May-20 21:32N 34°23' E 135°13'0 0.0
2016-May-20 20:26N 34°23' E 135°13'0 0.0
2016-May-20 19:29N 34°23' E 135°13'0 0.0
2016-May-20 18:14N 34°23' E 135°13'0 0.1
2016-May-20 17:21N 34°23' E 135°13'810.1
2016-May-20 16:33N 34°30' E 135°07'1110.5
2016-May-20 15:33N 34°36' E 134°56'2 0.1
2016-May-19 06:25N 34°36' E 134°54'8 9.6
2016-May-19 05:33N 34°36' E 135°04'1110.9
2016-May-19 04:33N 34°26' E 135°11'3 2.8
2016-May-19 03:24N 34°25' E 135°14'0 0.0
2016-May-19 01:24N 34°25' E 135°14'0 0.0
2016-May-19 00:30N 34°25' E 135°14'2 2.3
2016-May-18 23:33N 34°23' E 135°13'0 0.1
2016-May-18 22:32N 34°23' E 135°13'0 0.0
2016-May-18 21:32N 34°23' E 135°13'0 0.0
2016-May-18 20:32N 34°23' E 135°13'1 0.9
2016-May-18 19:33N 34°24' E 135°12'1110.9
2016-May-18 18:33N 34°33' E 135°04'8 0.2
2016-May-16 23:33N 34°36' E 134°55'1010.5
2016-May-16 22:33N 34°32' E 135°07'1110.6
2016-May-16 21:33N 34°22' E 135°12'0 0.0
2016-May-16 20:30N 34°23' E 135°12'0 0.0
2016-May-16 19:33N 34°22' E 135°12'0 0.0
2016-May-16 18:24N 34°22' E 135°12'0 0.0
2016-May-16 16:06N 34°23' E 135°12'0 0.0
2016-May-16 15:24N 34°23' E 135°12'  

Dump ship's entire track history